CZBA weather

Burlington Executive
Burlington, Ontario, Canada

Public forecast

Using degrees Celsius for public forecast. Weather courtesy of forecast.io.

METAR (pilot weather report)

Closest report is John C. Munro Hamilton International Airport, 16.5 nm (30.6 km) SSW. Retrieved 2019/03/19 14:00 UTC (34 minutes ago):

CYHM 191400Z 24005KT 15SM FEW075 FEW240 01/M03 A3036 RMK AC1CI2 AC TR SLP295

TAF (pilot weather forecast)

Closest forecast is John C. Munro Hamilton International Airport, 16.5 nm (30.6 km) SSW. Retrieved 2019/03/19 12:42 UTC (2 hours ago):

TAF CYHM 191138Z 1912/2012 24005KT P6SM BKN080 FM191400 26008KT P6SM FEW030 FM191800 26012KT P6SM SCT040 FM192100 27010KT P6SM BKN060 BECMG 1923/2001 22007KT FM200400 21008KT P6SM SCT100 RMK NXT FCST BY 191800Z